sensor_id;sensor_type;location;lat;lon;timestamp;pressure;altitude;pressure_sealevel;temperature
24586;BMP280;12743;52.262;6.172;2023-04-23T00:00:39;99072.19;;;8.98
24586;BMP280;12743;52.262;6.172;2023-04-23T00:03:07;99065.44;;;8.97
24586;BMP280;12743;52.262;6.172;2023-04-23T00:05:38;99035.38;;;8.88
24586;BMP280;12743;52.262;6.172;2023-04-23T00:08:05;99063.47;;;8.91
24586;BMP280;12743;52.262;6.172;2023-04-23T00:10:31;99062.22;;;9.04
24586;BMP280;12743;52.262;6.172;2023-04-23T00:12:58;99052.41;;;9.01
24586;BMP280;12743;52.262;6.172;2023-04-23T00:15:25;99049.88;;;8.82
24586;BMP280;12743;52.262;6.172;2023-04-23T00:17:52;99070.88;;;8.85
24586;BMP280;12743;52.262;6.172;2023-04-23T00:20:18;99069.53;;;8.95
24586;BMP280;12743;52.262;6.172;2023-04-23T00:22:45;99072.44;;;8.90
24586;BMP280;12743;52.262;6.172;2023-04-23T00:25:12;98997.69;;;8.66
24586;BMP280;12743;52.262;6.172;2023-04-23T00:27:38;99066.34;;;9.05
24586;BMP280;12743;52.262;6.172;2023-04-23T00:30:05;99081.91;;;8.98
24586;BMP280;12743;52.262;6.172;2023-04-23T00:32:32;99065.66;;;8.85
24586;BMP280;12743;52.262;6.172;2023-04-23T00:34:59;99078.34;;;8.83
24586;BMP280;12743;52.262;6.172;2023-04-23T00:37:26;99065.19;;;8.80
24586;BMP280;12743;52.262;6.172;2023-04-23T00:39:53;99018.22;;;8.67
24586;BMP280;12743;52.262;6.172;2023-04-23T00:42:19;99053.94;;;9.02
24586;BMP280;12743;52.262;6.172;2023-04-23T00:44:47;99047.78;;;9.13
24586;BMP280;12743;52.262;6.172;2023-04-23T00:47:15;99049.88;;;9.04
24586;BMP280;12743;52.262;6.172;2023-04-23T00:49:42;99055.97;;;9.12
24586;BMP280;12743;52.262;6.172;2023-04-23T00:52:09;99059.38;;;9.16
24586;BMP280;12743;52.262;6.172;2023-04-23T00:54:35;99054.44;;;9.11
24586;BMP280;12743;52.262;6.172;2023-04-23T00:57:02;99052.88;;;9.06
24586;BMP280;12743;52.262;6.172;2023-04-23T00:59:30;99045.31;;;9.01
24586;BMP280;12743;52.262;6.172;2023-04-23T01:01:57;99054.69;;;9.02
24586;BMP280;12743;52.262;6.172;2023-04-23T01:04:26;99050.47;;;8.94
24586;BMP280;12743;52.262;6.172;2023-04-23T01:06:53;99049.41;;;8.99
24586;BMP280;12743;52.262;6.172;2023-04-23T01:09:21;99044.81;;;8.92
24586;BMP280;12743;52.262;6.172;2023-04-23T01:11:48;99046.56;;;8.85
24586;BMP280;12743;52.262;6.172;2023-04-23T01:14:16;99044.88;;;8.96
24586;BMP280;12743;52.262;6.172;2023-04-23T01:16:43;99041.88;;;8.94
24586;BMP280;12743;52.262;6.172;2023-04-23T01:19:10;99041.34;;;8.85
24586;BMP280;12743;52.262;6.172;2023-04-23T01:21:38;99044.34;;;8.87
24586;BMP280;12743;52.262;6.172;2023-04-23T01:24:08;99039.16;;;8.64
24586;BMP280;12743;52.262;6.172;2023-04-23T01:26:35;99038.22;;;8.76
24586;BMP280;12743;52.262;6.172;2023-04-23T01:29:02;99035.31;;;8.81
24586;BMP280;12743;52.262;6.172;2023-04-23T01:31:29;99032.44;;;8.89
24586;BMP280;12743;52.262;6.172;2023-04-23T01:33:56;99032.38;;;8.86
24586;BMP280;12743;52.262;6.172;2023-04-23T01:36:24;99034.75;;;8.71
24586;BMP280;12743;52.262;6.172;2023-04-23T01:38:52;99036.03;;;8.58
24586;BMP280;12743;52.262;6.172;2023-04-23T01:41:19;99040.75;;;8.49
24586;BMP280;12743;52.262;6.172;2023-04-23T01:43:45;99035.50;;;8.49
24586;BMP280;12743;52.262;6.172;2023-04-23T01:46:12;99016.63;;;8.59
24586;BMP280;12743;52.262;6.172;2023-04-23T01:48:39;99017.94;;;8.46
24586;BMP280;12743;52.262;6.172;2023-04-23T01:51:06;99004.78;;;8.43
24586;BMP280;12743;52.262;6.172;2023-04-23T01:53:33;99002.16;;;8.43
24586;BMP280;12743;52.262;6.172;2023-04-23T01:56:00;98981.81;;;8.55
24586;BMP280;12743;52.262;6.172;2023-04-23T01:58:27;98994.31;;;8.65
24586;BMP280;12743;52.262;6.172;2023-04-23T02:00:54;99011.06;;;8.84
24586;BMP280;12743;52.262;6.172;2023-04-23T02:03:22;99001.75;;;8.86
24586;BMP280;12743;52.262;6.172;2023-04-23T02:05:49;99014.28;;;9.00
24586;BMP280;12743;52.262;6.172;2023-04-23T02:08:17;99011.19;;;8.94
24586;BMP280;12743;52.262;6.172;2023-04-23T02:10:43;99019.56;;;9.03
24586;BMP280;12743;52.262;6.172;2023-04-23T02:13:10;99026.31;;;9.04
24586;BMP280;12743;52.262;6.172;2023-04-23T02:15:36;99017.34;;;9.05
24586;BMP280;12743;52.262;6.172;2023-04-23T02:18:03;99021.94;;;9.12
24586;BMP280;12743;52.262;6.172;2023-04-23T02:20:30;99023.72;;;9.08
24586;BMP280;12743;52.262;6.172;2023-04-23T02:22:56;99018.16;;;9.09
24586;BMP280;12743;52.262;6.172;2023-04-23T02:25:23;99025.69;;;9.14
24586;BMP280;12743;52.262;6.172;2023-04-23T02:27:50;99013.31;;;9.11
24586;BMP280;12743;52.262;6.172;2023-04-23T02:30:16;99017.38;;;9.09
24586;BMP280;12743;52.262;6.172;2023-04-23T02:32:43;99012.25;;;9.16
24586;BMP280;12743;52.262;6.172;2023-04-23T02:35:09;99025.81;;;9.21
24586;BMP280;12743;52.262;6.172;2023-04-23T02:37:36;99028.41;;;9.21
24586;BMP280;12743;52.262;6.172;2023-04-23T02:40:03;99022.72;;;9.16
24586;BMP280;12743;52.262;6.172;2023-04-23T02:42:33;99021.53;;;9.10
24586;BMP280;12743;52.262;6.172;2023-04-23T02:45:00;99001.25;;;9.03
24586;BMP280;12743;52.262;6.172;2023-04-23T02:47:26;99008.00;;;9.08
24586;BMP280;12743;52.262;6.172;2023-04-23T02:49:53;99004.63;;;9.04
24586;BMP280;12743;52.262;6.172;2023-04-23T02:52:20;99012.53;;;9.11
24586;BMP280;12743;52.262;6.172;2023-04-23T02:54:46;99021.19;;;9.15
24586;BMP280;12743;52.262;6.172;2023-04-23T02:57:13;99024.38;;;9.01
24586;BMP280;12743;52.262;6.172;2023-04-23T02:59:42;99011.00;;;9.06
24586;BMP280;12743;52.262;6.172;2023-04-23T03:02:08;99003.75;;;8.96
24586;BMP280;12743;52.262;6.172;2023-04-23T03:04:35;99005.91;;;8.91
24586;BMP280;12743;52.262;6.172;2023-04-23T03:07:02;99012.00;;;8.98
24586;BMP280;12743;52.262;6.172;2023-04-23T03:09:30;99007.56;;;9.02
24586;BMP280;12743;52.262;6.172;2023-04-23T03:11:57;99007.47;;;8.95
24586;BMP280;12743;52.262;6.172;2023-04-23T03:14:24;99005.97;;;8.94
24586;BMP280;12743;52.262;6.172;2023-04-23T03:16:50;99000.75;;;8.98
24586;BMP280;12743;52.262;6.172;2023-04-23T03:19:17;99000.06;;;9.01
24586;BMP280;12743;52.262;6.172;2023-04-23T03:21:44;99006.72;;;8.95
24586;BMP280;12743;52.262;6.172;2023-04-23T03:24:12;98994.09;;;9.00
24586;BMP280;12743;52.262;6.172;2023-04-23T03:26:38;98979.69;;;8.87
24586;BMP280;12743;52.262;6.172;2023-04-23T03:29:06;98974.91;;;8.93
24586;BMP280;12743;52.262;6.172;2023-04-23T03:31:32;98971.13;;;8.90
24586;BMP280;12743;52.262;6.172;2023-04-23T03:33:59;98968.16;;;8.92
24586;BMP280;12743;52.262;6.172;2023-04-23T03:36:31;98969.94;;;8.88
24586;BMP280;12743;52.262;6.172;2023-04-23T03:38:59;98931.25;;;8.74
24586;BMP280;12743;52.262;6.172;2023-04-23T03:41:34;98961.97;;;8.77
24586;BMP280;12743;52.262;6.172;2023-04-23T03:44:01;98959.72;;;8.76
24586;BMP280;12743;52.262;6.172;2023-04-23T03:46:38;98951.09;;;8.75
24586;BMP280;12743;52.262;6.172;2023-04-23T03:49:05;98954.22;;;8.84
24586;BMP280;12743;52.262;6.172;2023-04-23T03:51:32;98954.84;;;8.77
24586;BMP280;12743;52.262;6.172;2023-04-23T03:53:58;98947.81;;;8.82
24586;BMP280;12743;52.262;6.172;2023-04-23T03:56:34;98946.66;;;8.79
24586;BMP280;12743;52.262;6.172;2023-04-23T03:59:10;98952.22;;;8.77
24586;BMP280;12743;52.262;6.172;2023-04-23T04:01:37;98921.66;;;8.55
24586;BMP280;12743;52.262;6.172;2023-04-23T04:04:03;98940.56;;;8.71
24586;BMP280;12743;52.262;6.172;2023-04-23T04:06:31;98931.38;;;8.58
24586;BMP280;12743;52.262;6.172;2023-04-23T04:08:58;98935.94;;;8.61
24586;BMP280;12743;52.262;6.172;2023-04-23T04:11:25;98939.63;;;8.57
24586;BMP280;12743;52.262;6.172;2023-04-23T04:13:52;98933.13;;;8.51
24586;BMP280;12743;52.262;6.172;2023-04-23T04:16:18;98937.38;;;8.59
24586;BMP280;12743;52.262;6.172;2023-04-23T04:18:45;98935.84;;;8.58
24586;BMP280;12743;52.262;6.172;2023-04-23T04:21:11;98921.50;;;8.48
24586;BMP280;12743;52.262;6.172;2023-04-23T04:23:38;98921.66;;;8.55
24586;BMP280;12743;52.262;6.172;2023-04-23T04:26:05;98932.50;;;8.57
24586;BMP280;12743;52.262;6.172;2023-04-23T04:28:33;98926.56;;;8.34
24586;BMP280;12743;52.262;6.172;2023-04-23T04:31:02;98928.22;;;8.46
24586;BMP280;12743;52.262;6.172;2023-04-23T04:33:29;98867.94;;;8.13
24586;BMP280;12743;52.262;6.172;2023-04-23T04:35:56;98924.44;;;8.43
24586;BMP280;12743;52.262;6.172;2023-04-23T04:38:22;98912.88;;;8.44
24586;BMP280;12743;52.262;6.172;2023-04-23T04:40:49;98922.94;;;8.42
24586;BMP280;12743;52.262;6.172;2023-04-23T04:43:15;98920.03;;;8.47
24586;BMP280;12743;52.262;6.172;2023-04-23T04:45:42;98915.03;;;8.39
24586;BMP280;12743;52.262;6.172;2023-04-23T04:48:10;98933.31;;;8.39
24586;BMP280;12743;52.262;6.172;2023-04-23T04:50:36;98909.50;;;8.21
24586;BMP280;12743;52.262;6.172;2023-04-23T04:53:03;98927.47;;;8.23
24586;BMP280;12743;52.262;6.172;2023-04-23T04:55:29;98919.63;;;8.23
24586;BMP280;12743;52.262;6.172;2023-04-23T04:57:56;98919.53;;;8.16
24586;BMP280;12743;52.262;6.172;2023-04-23T05:00:24;98820.38;;;7.58
24586;BMP280;12743;52.262;6.172;2023-04-23T05:02:54;98911.50;;;8.28
24586;BMP280;12743;52.262;6.172;2023-04-23T05:05:22;98913.00;;;8.29
24586;BMP280;12743;52.262;6.172;2023-04-23T05:07:49;98909.25;;;8.26
24586;BMP280;12743;52.262;6.172;2023-04-23T05:10:15;98911.31;;;8.17
24586;BMP280;12743;52.262;6.172;2023-04-23T05:12:42;98906.66;;;8.30
24586;BMP280;12743;52.262;6.172;2023-04-23T05:15:10;98905.56;;;8.31
24586;BMP280;12743;52.262;6.172;2023-04-23T05:17:41;98905.72;;;8.19
24586;BMP280;12743;52.262;6.172;2023-04-23T05:20:09;98897.56;;;8.20
24586;BMP280;12743;52.262;6.172;2023-04-23T05:22:39;98892.31;;;8.20
24586;BMP280;12743;52.262;6.172;2023-04-23T05:25:08;98878.38;;;8.13
24586;BMP280;12743;52.262;6.172;2023-04-23T05:27:34;98908.88;;;8.28
24586;BMP280;12743;52.262;6.172;2023-04-23T05:30:02;98905.28;;;8.36
24586;BMP280;12743;52.262;6.172;2023-04-23T05:32:29;98898.47;;;8.31
24586;BMP280;12743;52.262;6.172;2023-04-23T05:34:55;98888.38;;;8.30
24586;BMP280;12743;52.262;6.172;2023-04-23T05:37:22;98880.53;;;8.30
24586;BMP280;12743;52.262;6.172;2023-04-23T05:39:48;98895.75;;;8.47
24586;BMP280;12743;52.262;6.172;2023-04-23T05:42:15;98902.84;;;8.46
24586;BMP280;12743;52.262;6.172;2023-04-23T05:44:41;98899.19;;;8.54
24586;BMP280;12743;52.262;6.172;2023-04-23T05:47:09;98878.72;;;8.60
24586;BMP280;12743;52.262;6.172;2023-04-23T05:49:36;98879.22;;;8.69
24586;BMP280;12743;52.262;6.172;2023-04-23T05:52:03;98822.88;;;8.49
24586;BMP280;12743;52.262;6.172;2023-04-23T05:54:30;98869.78;;;8.91
24586;BMP280;12743;52.262;6.172;2023-04-23T05:56:57;98875.84;;;8.95
24586;BMP280;12743;52.262;6.172;2023-04-23T05:59:24;98873.72;;;8.77
24586;BMP280;12743;52.262;6.172;2023-04-23T06:01:51;98892.03;;;8.77
24586;BMP280;12743;52.262;6.172;2023-04-23T06:04:17;98853.03;;;8.65
24586;BMP280;12743;52.262;6.172;2023-04-23T06:06:45;98883.16;;;8.82
24586;BMP280;12743;52.262;6.172;2023-04-23T06:09:11;98860.25;;;8.76
24586;BMP280;12743;52.262;6.172;2023-04-23T06:11:38;98868.25;;;8.86
24586;BMP280;12743;52.262;6.172;2023-04-23T06:14:04;98848.69;;;8.77
24586;BMP280;12743;52.262;6.172;2023-04-23T06:16:31;98866.78;;;8.89
24586;BMP280;12743;52.262;6.172;2023-04-23T06:18:58;98862.28;;;8.89
24586;BMP280;12743;52.262;6.172;2023-04-23T06:21:24;98872.00;;;8.89
24586;BMP280;12743;52.262;6.172;2023-04-23T06:23:52;98866.06;;;8.92
24586;BMP280;12743;52.262;6.172;2023-04-23T06:26:19;98864.13;;;8.85
24586;BMP280;12743;52.262;6.172;2023-04-23T06:28:48;98847.97;;;8.80
24586;BMP280;12743;52.262;6.172;2023-04-23T06:31:25;98858.91;;;8.89
24586;BMP280;12743;52.262;6.172;2023-04-23T06:33:52;98851.41;;;8.84
24586;BMP280;12743;52.262;6.172;2023-04-23T06:36:18;98858.50;;;8.83
24586;BMP280;12743;52.262;6.172;2023-04-23T06:38:45;98840.88;;;9.10
24586;BMP280;12743;52.262;6.172;2023-04-23T06:41:11;98824.09;;;9.18
24586;BMP280;12743;52.262;6.172;2023-04-23T06:43:38;98844.22;;;9.47
24586;BMP280;12743;52.262;6.172;2023-04-23T06:46:26;98846.59;;;9.56
24586;BMP280;12743;52.262;6.172;2023-04-23T06:48:53;98848.09;;;9.60
24586;BMP280;12743;52.262;6.172;2023-04-23T06:51:19;98844.97;;;9.84
24586;BMP280;12743;52.262;6.172;2023-04-23T06:53:46;98848.41;;;9.92
24586;BMP280;12743;52.262;6.172;2023-04-23T06:56:13;98846.25;;;10.08
24586;BMP280;12743;52.262;6.172;2023-04-23T06:58:40;98848.22;;;10.18
24586;BMP280;12743;52.262;6.172;2023-04-23T07:01:14;98840.41;;;10.29
24586;BMP280;12743;52.262;6.172;2023-04-23T07:03:41;98841.97;;;10.37
24586;BMP280;12743;52.262;6.172;2023-04-23T07:06:10;98819.88;;;10.41
24586;BMP280;12743;52.262;6.172;2023-04-23T07:08:37;98848.44;;;10.57
24586;BMP280;12743;52.262;6.172;2023-04-23T07:11:05;98856.31;;;10.57
24586;BMP280;12743;52.262;6.172;2023-04-23T07:13:31;98831.97;;;10.60
24586;BMP280;12743;52.262;6.172;2023-04-23T07:15:58;98849.69;;;10.84
24586;BMP280;12743;52.262;6.172;2023-04-23T07:18:24;98861.00;;;10.95
24586;BMP280;12743;52.262;6.172;2023-04-23T07:20:51;98850.13;;;11.04
24586;BMP280;12743;52.262;6.172;2023-04-23T07:23:18;98862.53;;;11.10
24586;BMP280;12743;52.262;6.172;2023-04-23T07:25:45;98868.94;;;11.16
24586;BMP280;12743;52.262;6.172;2023-04-23T07:28:11;98861.88;;;11.41
24586;BMP280;12743;52.262;6.172;2023-04-23T07:30:38;98872.38;;;11.52
24586;BMP280;12743;52.262;6.172;2023-04-23T07:33:04;98888.88;;;11.42
24586;BMP280;12743;52.262;6.172;2023-04-23T07:35:31;98890.78;;;11.52
24586;BMP280;12743;52.262;6.172;2023-04-23T07:37:57;98901.28;;;11.56
24586;BMP280;12743;52.262;6.172;2023-04-23T07:40:24;98870.88;;;11.69
24586;BMP280;12743;52.262;6.172;2023-04-23T07:42:51;98903.22;;;11.83
24586;BMP280;12743;52.262;6.172;2023-04-23T07:45:18;98896.84;;;11.81
24586;BMP280;12743;52.262;6.172;2023-04-23T07:47:44;98909.97;;;12.09
24586;BMP280;12743;52.262;6.172;2023-04-23T07:50:14;98918.25;;;12.07
24586;BMP280;12743;52.262;6.172;2023-04-23T07:52:41;98926.88;;;12.18
24586;BMP280;12743;52.262;6.172;2023-04-23T07:55:07;98924.25;;;12.29
24586;BMP280;12743;52.262;6.172;2023-04-23T07:57:35;98928.75;;;12.43
24586;BMP280;12743;52.262;6.172;2023-04-23T08:00:02;98933.22;;;12.60
24586;BMP280;12743;52.262;6.172;2023-04-23T08:02:37;98955.41;;;12.69
24586;BMP280;12743;52.262;6.172;2023-04-23T08:05:04;98975.72;;;12.79
24586;BMP280;12743;52.262;6.172;2023-04-23T08:07:31;98995.66;;;12.77
24586;BMP280;12743;52.262;6.172;2023-04-23T08:09:57;99036.63;;;12.74
24586;BMP280;12743;52.262;6.172;2023-04-23T08:12:28;99036.63;;;12.88
24586;BMP280;12743;52.262;6.172;2023-04-23T08:14:55;99065.25;;;12.97
24586;BMP280;12743;52.262;6.172;2023-04-23T08:17:29;99037.03;;;12.83
24586;BMP280;12743;52.262;6.172;2023-04-23T08:19:56;99047.13;;;13.17
24586;BMP280;12743;52.262;6.172;2023-04-23T08:22:23;99063.25;;;13.26
24586;BMP280;12743;52.262;6.172;2023-04-23T08:24:49;99078.31;;;13.36
24586;BMP280;12743;52.262;6.172;2023-04-23T08:27:16;99110.28;;;13.48
24586;BMP280;12743;52.262;6.172;2023-04-23T08:29:42;99143.03;;;13.54
24586;BMP280;12743;52.262;6.172;2023-04-23T08:32:09;99154.69;;;13.67
24586;BMP280;12743;52.262;6.172;2023-04-23T08:34:36;99164.44;;;13.81
24586;BMP280;12743;52.262;6.172;2023-04-23T08:37:02;99149.81;;;13.62
24586;BMP280;12743;52.262;6.172;2023-04-23T08:39:32;99175.44;;;13.55
24586;BMP280;12743;52.262;6.172;2023-04-23T08:42:14;99136.94;;;13.79
24586;BMP280;12743;52.262;6.172;2023-04-23T08:44:43;99191.84;;;14.05
24586;BMP280;12743;52.262;6.172;2023-04-23T08:47:16;99215.59;;;14.12
24586;BMP280;12743;52.262;6.172;2023-04-23T08:49:45;99228.81;;;14.05
24586;BMP280;12743;52.262;6.172;2023-04-23T08:52:16;99202.88;;;14.58
24586;BMP280;12743;52.262;6.172;2023-04-23T08:54:47;99314.63;;;14.52
24586;BMP280;12743;52.262;6.172;2023-04-23T08:57:15;99349.31;;;14.50
24586;BMP280;12743;52.262;6.172;2023-04-23T08:59:43;99332.03;;;14.38
24586;BMP280;12743;52.262;6.172;2023-04-23T09:02:10;99341.06;;;14.37
24586;BMP280;12743;52.262;6.172;2023-04-23T09:04:37;99375.78;;;14.39
24586;BMP280;12743;52.262;6.172;2023-04-23T09:07:04;99338.25;;;14.80
24586;BMP280;12743;52.262;6.172;2023-04-23T09:09:33;99384.00;;;14.63
24586;BMP280;12743;52.262;6.172;2023-04-23T09:12:00;99379.34;;;14.91
24586;BMP280;12743;52.262;6.172;2023-04-23T09:14:27;99377.34;;;15.09
24586;BMP280;12743;52.262;6.172;2023-04-23T09:16:53;99392.53;;;15.02
24586;BMP280;12743;52.262;6.172;2023-04-23T09:19:20;99434.97;;;15.36
24586;BMP280;12743;52.262;6.172;2023-04-23T09:21:47;99440.78;;;15.13
24586;BMP280;12743;52.262;6.172;2023-04-23T09:24:14;99450.25;;;15.14
24586;BMP280;12743;52.262;6.172;2023-04-23T09:26:45;99471.72;;;15.23
24586;BMP280;12743;52.262;6.172;2023-04-23T09:29:16;99413.59;;;15.67
24586;BMP280;12743;52.262;6.172;2023-04-23T09:31:45;99469.50;;;15.73
24586;BMP280;12743;52.262;6.172;2023-04-23T09:34:18;99456.84;;;15.98
24586;BMP280;12743;52.262;6.172;2023-04-23T09:36:47;99484.88;;;15.37
24586;BMP280;12743;52.262;6.172;2023-04-23T09:39:17;99472.84;;;15.87
24586;BMP280;12743;52.262;6.172;2023-04-23T09:41:44;99490.50;;;16.01
24586;BMP280;12743;52.262;6.172;2023-04-23T09:44:16;99531.50;;;15.75
24586;BMP280;12743;52.262;6.172;2023-04-23T09:46:44;99511.31;;;15.95
24586;BMP280;12743;52.262;6.172;2023-04-23T09:49:12;99508.25;;;16.04
24586;BMP280;12743;52.262;6.172;2023-04-23T09:51:43;99533.50;;;16.12
24586;BMP280;12743;52.262;6.172;2023-04-23T09:54:19;99553.50;;;16.24
24586;BMP280;12743;52.262;6.172;2023-04-23T09:56:51;99596.03;;;16.02
24586;BMP280;12743;52.262;6.172;2023-04-23T09:59:24;99594.22;;;15.85
24586;BMP280;12743;52.262;6.172;2023-04-23T10:02:11;99559.28;;;16.04
24586;BMP280;12743;52.262;6.172;2023-04-23T10:04:38;99513.03;;;16.16
24586;BMP280;12743;52.262;6.172;2023-04-23T10:07:06;99557.56;;;16.72
24586;BMP280;12743;52.262;6.172;2023-04-23T10:09:45;99657.56;;;16.21
24586;BMP280;12743;52.262;6.172;2023-04-23T10:12:13;99656.47;;;16.14
24586;BMP280;12743;52.262;6.172;2023-04-23T10:14:43;99628.50;;;16.13
24586;BMP280;12743;52.262;6.172;2023-04-23T10:17:11;99650.84;;;16.97
24586;BMP280;12743;52.262;6.172;2023-04-23T10:19:38;99662.44;;;16.77
24586;BMP280;12743;52.262;6.172;2023-04-23T10:22:09;99684.16;;;17.06
24586;BMP280;12743;52.262;6.172;2023-04-23T10:24:49;99719.28;;;16.76
24586;BMP280;12743;52.262;6.172;2023-04-23T10:27:17;99738.81;;;16.45
24586;BMP280;12743;52.262;6.172;2023-04-23T10:29:48;99712.56;;;16.61
24586;BMP280;12743;52.262;6.172;2023-04-23T10:32:16;99744.38;;;17.12
24586;BMP280;12743;52.262;6.172;2023-04-23T10:34:43;99755.34;;;17.48
24586;BMP280;12743;52.262;6.172;2023-04-23T10:37:11;99784.06;;;17.56
24586;BMP280;12743;52.262;6.172;2023-04-23T10:39:42;99784.47;;;17.18
24586;BMP280;12743;52.262;6.172;2023-04-23T10:42:09;99772.38;;;17.13
24586;BMP280;12743;52.262;6.172;2023-04-23T10:44:41;99803.94;;;17.00
24586;BMP280;12743;52.262;6.172;2023-04-23T10:47:15;99794.88;;;16.94
24586;BMP280;12743;52.262;6.172;2023-04-23T10:49:43;99799.50;;;16.87
24586;BMP280;12743;52.262;6.172;2023-04-23T10:52:12;99785.06;;;16.88
24586;BMP280;12743;52.262;6.172;2023-04-23T10:54:48;99780.22;;;16.83
24586;BMP280;12743;52.262;6.172;2023-04-23T10:57:15;99775.03;;;17.13
24586;BMP280;12743;52.262;6.172;2023-04-23T10:59:53;99812.56;;;16.60
24586;BMP280;12743;52.262;6.172;2023-04-23T11:02:22;99776.94;;;16.58
24586;BMP280;12743;52.262;6.172;2023-04-23T11:04:57;99787.00;;;16.84
24586;BMP280;12743;52.262;6.172;2023-04-23T11:07:31;99819.56;;;16.91
24586;BMP280;12743;52.262;6.172;2023-04-23T11:09:58;99849.75;;;17.05
24586;BMP280;12743;52.262;6.172;2023-04-23T11:14:58;99851.50;;;17.25
24586;BMP280;12743;52.262;6.172;2023-04-23T11:20:08;99905.28;;;17.36
24586;BMP280;12743;52.262;6.172;2023-04-23T11:22:37;99920.44;;;17.36
24586;BMP280;12743;52.262;6.172;2023-04-23T11:25:08;99935.91;;;17.44
24586;BMP280;12743;52.262;6.172;2023-04-23T11:27:37;99933.25;;;17.44
24586;BMP280;12743;52.262;6.172;2023-04-23T11:30:09;99923.94;;;17.70
24586;BMP280;12743;52.262;6.172;2023-04-23T11:32:36;99929.53;;;17.82
24586;BMP280;12743;52.262;6.172;2023-04-23T11:35:03;99930.50;;;17.58
24586;BMP280;12743;52.262;6.172;2023-04-23T11:37:30;99932.75;;;17.12
24586;BMP280;12743;52.262;6.172;2023-04-23T11:39:57;99897.69;;;16.73
24586;BMP280;12743;52.262;6.172;2023-04-23T11:42:31;99904.09;;;16.82
24586;BMP280;12743;52.262;6.172;2023-04-23T11:44:58;99866.28;;;16.68
24586;BMP280;12743;52.262;6.172;2023-04-23T11:47:25;99885.88;;;16.88
24586;BMP280;12743;52.262;6.172;2023-04-23T11:49:51;99887.34;;;16.96
24586;BMP280;12743;52.262;6.172;2023-04-23T11:52:18;99893.00;;;17.02
24586;BMP280;12743;52.262;6.172;2023-04-23T11:54:44;99884.94;;;17.16
24586;BMP280;12743;52.262;6.172;2023-04-23T11:57:11;99877.00;;;17.16
24586;BMP280;12743;52.262;6.172;2023-04-23T11:59:39;99867.47;;;17.22
24586;BMP280;12743;52.262;6.172;2023-04-23T12:02:06;99877.91;;;16.88
24586;BMP280;12743;52.262;6.172;2023-04-23T12:04:33;99882.00;;;17.07
24586;BMP280;12743;52.262;6.172;2023-04-23T12:07:00;99878.16;;;17.11
24586;BMP280;12743;52.262;6.172;2023-04-23T12:09:33;99861.59;;;17.44
24586;BMP280;12743;52.262;6.172;2023-04-23T12:12:01;99863.41;;;17.54
24586;BMP280;12743;52.262;6.172;2023-04-23T12:14:29;99867.75;;;17.31
24586;BMP280;12743;52.262;6.172;2023-04-23T12:16:57;99858.56;;;17.42
24586;BMP280;12743;52.262;6.172;2023-04-23T12:19:29;99858.19;;;17.40
24586;BMP280;12743;52.262;6.172;2023-04-23T12:22:00;99853.69;;;17.34
24586;BMP280;12743;52.262;6.172;2023-04-23T12:24:30;99855.66;;;17.30
24586;BMP280;12743;52.262;6.172;2023-04-23T12:26:58;99867.41;;;17.29
24586;BMP280;12743;52.262;6.172;2023-04-23T12:29:28;99863.75;;;17.12
24586;BMP280;12743;52.262;6.172;2023-04-23T12:31:57;99851.22;;;17.13
24586;BMP280;12743;52.262;6.172;2023-04-23T12:34:24;99842.09;;;17.14
24586;BMP280;12743;52.262;6.172;2023-04-23T12:36:53;99851.09;;;17.30
24586;BMP280;12743;52.262;6.172;2023-04-23T12:41:54;99827.13;;;17.37
24586;BMP280;12743;52.262;6.172;2023-04-23T12:44:22;99812.22;;;17.50
24586;BMP280;12743;52.262;6.172;2023-04-23T12:46:53;99820.22;;;17.02
24586;BMP280;12743;52.262;6.172;2023-04-23T12:49:22;99842.19;;;17.07
24586;BMP280;12743;52.262;6.172;2023-04-23T12:51:49;99838.81;;;16.99
24586;BMP280;12743;52.262;6.172;2023-04-23T12:54:18;99832.06;;;16.87
24586;BMP280;12743;52.262;6.172;2023-04-23T12:56:44;99827.13;;;16.93
24586;BMP280;12743;52.262;6.172;2023-04-23T12:59:11;99799.28;;;17.15
24586;BMP280;12743;52.262;6.172;2023-04-23T13:01:38;99804.69;;;17.01
24586;BMP280;12743;52.262;6.172;2023-04-23T13:04:04;99776.16;;;17.16
24586;BMP280;12743;52.262;6.172;2023-04-23T13:06:31;99804.63;;;17.12
24586;BMP280;12743;52.262;6.172;2023-04-23T13:08:58;99779.03;;;17.69
24586;BMP280;12743;52.262;6.172;2023-04-23T13:11:27;99797.25;;;18.31
24586;BMP280;12743;52.262;6.172;2023-04-23T13:13:54;99806.81;;;18.78
24586;BMP280;12743;52.262;6.172;2023-04-23T13:16:20;99770.78;;;18.97
24586;BMP280;12743;52.262;6.172;2023-04-23T13:18:47;99810.19;;;18.78
24586;BMP280;12743;52.262;6.172;2023-04-23T13:21:17;99813.03;;;19.37
24586;BMP280;12743;52.262;6.172;2023-04-23T13:23:44;99795.69;;;19.49
24586;BMP280;12743;52.262;6.172;2023-04-23T13:26:11;99801.97;;;19.58
24586;BMP280;12743;52.262;6.172;2023-04-23T13:28:37;99817.34;;;19.08
24586;BMP280;12743;52.262;6.172;2023-04-23T13:31:04;99785.59;;;19.40
24586;BMP280;12743;52.262;6.172;2023-04-23T13:33:32;99776.31;;;18.06
24586;BMP280;12743;52.262;6.172;2023-04-23T13:35:59;99765.41;;;18.54
24586;BMP280;12743;52.262;6.172;2023-04-23T13:38:26;99756.38;;;17.91
24586;BMP280;12743;52.262;6.172;2023-04-23T13:40:53;99760.78;;;17.74
24586;BMP280;12743;52.262;6.172;2023-04-23T13:43:19;99767.06;;;18.44
24586;BMP280;12743;52.262;6.172;2023-04-23T13:45:46;99774.16;;;18.77
24586;BMP280;12743;52.262;6.172;2023-04-23T13:48:14;99768.50;;;18.49
24586;BMP280;12743;52.262;6.172;2023-04-23T13:50:44;99740.94;;;18.09
24586;BMP280;12743;52.262;6.172;2023-04-23T13:53:11;99736.19;;;17.97
24586;BMP280;12743;52.262;6.172;2023-04-23T13:55:38;99744.13;;;17.70
24586;BMP280;12743;52.262;6.172;2023-04-23T13:58:05;99719.88;;;17.68
24586;BMP280;12743;52.262;6.172;2023-04-23T14:00:32;99716.53;;;17.91
24586;BMP280;12743;52.262;6.172;2023-04-23T14:02:59;99724.81;;;17.36
24586;BMP280;12743;52.262;6.172;2023-04-23T14:05:26;99701.00;;;17.89
24586;BMP280;12743;52.262;6.172;2023-04-23T14:07:52;99719.75;;;17.79
24586;BMP280;12743;52.262;6.172;2023-04-23T14:10:19;99711.41;;;17.77
24586;BMP280;12743;52.262;6.172;2023-04-23T14:12:45;99721.00;;;17.34
24586;BMP280;12743;52.262;6.172;2023-04-23T14:15:12;99703.22;;;17.64
24586;BMP280;12743;52.262;6.172;2023-04-23T14:17:39;99705.44;;;17.69
24586;BMP280;12743;52.262;6.172;2023-04-23T14:20:08;99710.94;;;17.52
24586;BMP280;12743;52.262;6.172;2023-04-23T14:22:35;99710.63;;;17.46
24586;BMP280;12743;52.262;6.172;2023-04-23T14:25:07;99708.13;;;17.36